Cold Springs, CA

7:33 PM PDT on September 14, 2014 (GMT -0700)
Sugar Pine | Change Station
CLOSE
Current Station
Personal Weather Station
Location: Twain Harte, CA
Elevation: 4596 ft
Nearby Weather Stations

Elev 4596 ft 38.06 °N, 120.20 °W | Updated 7 seconds ago

Clear
Clear
76.0 °F
Feels Like 77 °F
N
0.0
Wind Variable Wind from NE
Gusts 0.0 mph

Today
High -- | Low -- °F
--% Chance of Precip.
Yesterday
High -- | Low -- °F
Precip. -- in
6:41 AM 7:09 PM
Waning Gibbous, 60% visible
Pressure 30.01 in
Visibility 10.0 miles
Clouds Clear
Heat Index 77 °F
Dew Point 43 °F
Humidity 31%
Rainfall 0.00 in
Snow Depth Not available.
UV 0 out of 12
Pollen 6.90 out of 12
Ozone Moderate
Flu Activity Not available.
METAR KTVL 150153Z AUTO VRB04KT 10SM CLR 22/03 A3014 RMK AO2 SLP160 T02170028

More Conditions Fewer Conditions

Pressure 30.01 in
Visibility 10.0 miles
Clouds Clear
Heat Index 77 °F
Dew Point 43 °F
Humidity 31%
Rainfall 0.00 in
Snow Depth Not available.
UV 0 out of 12
Pollen 6.90 out of 12
Ozone Moderate
Flu Activity Not available.
METAR KTVL 150153Z AUTO VRB04KT 10SM CLR 22/03 A3014 RMK AO2 SLP160 T02170028

More Conditions Fewer Conditions

10-Day Weather Forecast

Almanac

Astronomy

Sep. 14, 2014 Rise Set
Actual Time 6:41 AM PDT 7:09 PM PDT
Civil Twilight 6:14 AM PDT 7:36 PM PDT
Nautical Twilight 5:43 AM PDT 8:07 PM PDT
Astronomical Twilight 5:11 AM PDT 8:38 PM PDT
Moon 11:11 PM PDT (9/14) 12:46 PM PDT (9/14)
Length of Visible Light 13h 21m
Length of Day
12h 28m
Tomorrow will be 2m 25s shorter.
Waning Gibbous, 60% of the Moon is Illuminated
Today
Waning Gibbous
Sep 15
Last Quarter
Sep 24
New
Oct 1
First Quarter
Oct 8
Full

Today's Extremes

State Highs State Lows

Community

WunderPhotos

Upload Photos

1,753,381 photos uploaded!

Nearby

Air Quality

  Air Quality AQ Index Pollutant
Yesterday Moderate
OZONE
Current Moderate
OZONE

Snow Depth

Station Depth Elevation
Leavitt Meadows 0 in 7200 ft
Summit Meadow 1 in 9122 ft
Spratt Creek 0 in 6200 ft
Hagan's Meadow 0 in 8000 ft
Tahoe City Cross 0 in 6750 ft

Earthquake Activity

City Distance Mag. Time & Date
Ridgemark, California 126 miles 2.6 12:44 PM PDT
2014-09-12
Sun Valley, Nevada 97 miles 2.7 1:02 PM PDT
2014-09-11
Gonzales, California 128 miles 2.6 11:50 AM PDT
2014-09-11
Minimum magnitude displayed is 2.5.

Coastal Water Temperatures

Place Temperature
No Stations Reporting

Nearby Weather Stations